sensor_id;sensor_type;location;lat;lon;timestamp;pressure;altitude;pressure_sealevel;temperature;humidity
42671;BME280;28283;55.426;37.756;2023-03-21T00:00:33;99037.75;;;3.19;59.45
42671;BME280;28283;55.426;37.756;2023-03-21T00:05:33;99029.09;;;3.17;59.48
42671;BME280;28283;55.426;37.756;2023-03-21T00:10:33;99032.06;;;3.14;59.61
42671;BME280;28283;55.426;37.756;2023-03-21T00:15:34;99022.13;;;3.16;59.81
42671;BME280;28283;55.426;37.756;2023-03-21T00:20:37;99020.94;;;3.10;60.01
42671;BME280;28283;55.426;37.756;2023-03-21T00:25:38;99015.63;;;3.10;59.51
42671;BME280;28283;55.426;37.756;2023-03-21T00:30:41;99015.63;;;3.10;59.77
42671;BME280;28283;55.426;37.756;2023-03-21T00:35:41;99006.53;;;3.13;59.94
42671;BME280;28283;55.426;37.756;2023-03-21T00:40:43;99002.69;;;3.15;59.68
42671;BME280;28283;55.426;37.756;2023-03-21T00:45:44;99000.88;;;3.16;59.49
42671;BME280;28283;55.426;37.756;2023-03-21T00:50:45;98995.56;;;3.16;59.81
42671;BME280;28283;55.426;37.756;2023-03-21T00:55:46;98991.75;;;3.18;60.06
42671;BME280;28283;55.426;37.756;2023-03-21T01:00:46;98992.91;;;3.08;60.22
42671;BME280;28283;55.426;37.756;2023-03-21T01:05:47;98999.19;;;3.06;60.31
42671;BME280;28283;55.426;37.756;2023-03-21T01:11:07;98991.72;;;3.02;60.16
42671;BME280;28283;55.426;37.756;2023-03-21T01:16:08;98989.06;;;3.02;60.63
42671;BME280;28283;55.426;37.756;2023-03-21T01:21:10;98976.31;;;3.05;60.26
42671;BME280;28283;55.426;37.756;2023-03-21T01:26:11;98979.94;;;3.04;60.09
42671;BME280;28283;55.426;37.756;2023-03-21T01:31:13;98974.78;;;3.03;60.12
42671;BME280;28283;55.426;37.756;2023-03-21T01:36:18;98966.81;;;3.03;60.41
42671;BME280;28283;55.426;37.756;2023-03-21T01:51:29;98960.53;;;3.12;60.53
42671;BME280;28283;55.426;37.756;2023-03-21T01:56:32;98958.53;;;3.06;60.24
42671;BME280;28283;55.426;37.756;2023-03-21T02:01:33;98957.38;;;3.09;60.75
42671;BME280;28283;55.426;37.756;2023-03-21T02:06:45;98945.72;;;2.93;60.98
42671;BME280;28283;55.426;37.756;2023-03-21T02:11:46;98949.50;;;2.91;61.29
42671;BME280;28283;55.426;37.756;2023-03-21T02:16:51;98947.81;;;2.73;61.55
42671;BME280;28283;55.426;37.756;2023-03-21T02:27:15;98929.50;;;2.62;62.03
42671;BME280;28283;55.426;37.756;2023-03-21T02:38:16;98921.09;;;2.66;62.61
42671;BME280;28283;55.426;37.756;2023-03-21T02:43:12;98923.19;;;2.55;62.83
42671;BME280;28283;55.426;37.756;2023-03-21T02:48:18;98908.13;;;2.55;62.66
42671;BME280;28283;55.426;37.756;2023-03-21T02:58:22;98908.63;;;2.59;63.00
42671;BME280;28283;55.426;37.756;2023-03-21T03:03:23;98920.22;;;2.58;62.67
42671;BME280;28283;55.426;37.756;2023-03-21T03:18:40;98905.31;;;2.57;63.22
42671;BME280;28283;55.426;37.756;2023-03-21T03:23:51;98905.13;;;2.58;63.48
42671;BME280;28283;55.426;37.756;2023-03-21T03:28:56;98899.50;;;2.61;63.53
42671;BME280;28283;55.426;37.756;2023-03-21T03:33:59;98894.34;;;2.60;63.59
42671;BME280;28283;55.426;37.756;2023-03-21T03:39:01;98896.34;;;2.58;64.16
42671;BME280;28283;55.426;37.756;2023-03-21T03:44:03;98903.78;;;2.54;64.07
42671;BME280;28283;55.426;37.756;2023-03-21T03:49:07;98899.81;;;2.50;64.40
42671;BME280;28283;55.426;37.756;2023-03-21T03:54:10;98894.50;;;2.50;64.25
42671;BME280;28283;55.426;37.756;2023-03-21T03:59:12;98886.03;;;2.55;64.07
42671;BME280;28283;55.426;37.756;2023-03-21T04:04:18;98887.22;;;2.52;64.25
42671;BME280;28283;55.426;37.756;2023-03-21T04:09:22;98880.06;;;2.53;64.68
42671;BME280;28283;55.426;37.756;2023-03-21T04:14:23;98880.59;;;2.56;64.61
42671;BME280;28283;55.426;37.756;2023-03-21T04:19:23;98869.63;;;2.51;64.78
42671;BME280;28283;55.426;37.756;2023-03-21T04:24:24;98879.41;;;2.51;64.73
42671;BME280;28283;55.426;37.756;2023-03-21T04:29:24;98875.94;;;2.50;64.71
42671;BME280;28283;55.426;37.756;2023-03-21T04:34:25;98876.59;;;2.52;64.58
42671;BME280;28283;55.426;37.756;2023-03-21T04:39:27;98879.41;;;2.51;64.21
42671;BME280;28283;55.426;37.756;2023-03-21T04:44:27;98873.94;;;2.52;64.37
42671;BME280;28283;55.426;37.756;2023-03-21T04:49:28;98869.00;;;2.57;64.90
42671;BME280;28283;55.426;37.756;2023-03-21T04:54:28;98879.09;;;2.62;64.72
42671;BME280;28283;55.426;37.756;2023-03-21T04:59:29;98875.97;;;2.66;65.16
42671;BME280;28283;55.426;37.756;2023-03-21T05:04:31;98886.00;;;2.89;65.29
42671;BME280;28283;55.426;37.756;2023-03-21T05:09:31;98891.66;;;3.02;64.61
42671;BME280;28283;55.426;37.756;2023-03-21T05:14:32;98879.59;;;2.65;65.23
42671;BME280;28283;55.426;37.756;2023-03-21T05:19:32;98881.31;;;2.83;65.23
42671;BME280;28283;55.426;37.756;2023-03-21T05:24:39;98866.69;;;2.62;65.89
42671;BME280;28283;55.426;37.756;2023-03-21T05:29:40;98857.22;;;2.60;65.96
42671;BME280;28283;55.426;37.756;2023-03-21T05:34:41;98863.72;;;2.74;65.80
42671;BME280;28283;55.426;37.756;2023-03-21T05:39:42;98869.88;;;2.82;65.68
42671;BME280;28283;55.426;37.756;2023-03-21T05:44:42;98876.06;;;3.08;65.17
42671;BME280;28283;55.426;37.756;2023-03-21T05:49:42;98883.88;;;3.09;65.50
42671;BME280;28283;55.426;37.756;2023-03-21T05:54:43;98877.38;;;3.12;65.16
42671;BME280;28283;55.426;37.756;2023-03-21T05:59:44;98875.06;;;3.33;64.99
42671;BME280;28283;55.426;37.756;2023-03-21T06:04:44;98859.13;;;3.17;64.55
42671;BME280;28283;55.426;37.756;2023-03-21T06:09:52;98873.06;;;3.43;64.33
42671;BME280;28283;55.426;37.756;2023-03-21T06:14:52;98868.91;;;3.66;64.04
42671;BME280;28283;55.426;37.756;2023-03-21T06:19:53;98859.78;;;3.68;64.08
42671;BME280;28283;55.426;37.756;2023-03-21T06:24:53;98856.28;;;3.59;63.92
42671;BME280;28283;55.426;37.756;2023-03-21T06:29:53;98855.28;;;3.60;63.79
42671;BME280;28283;55.426;37.756;2023-03-21T06:34:54;98859.28;;;3.65;64.25
42671;BME280;28283;55.426;37.756;2023-03-21T06:39:54;98844.44;;;3.87;64.13
42671;BME280;28283;55.426;37.756;2023-03-21T06:44:55;98852.84;;;4.46;61.17
42671;BME280;28283;55.426;37.756;2023-03-21T06:49:55;98837.97;;;4.29;62.10
42671;BME280;28283;55.426;37.756;2023-03-21T06:54:56;98844.63;;;4.25;62.05
42671;BME280;28283;55.426;37.756;2023-03-21T06:59:56;98846.09;;;4.35;62.34
42671;BME280;28283;55.426;37.756;2023-03-21T07:04:57;98838.00;;;4.52;62.02
42671;BME280;28283;55.426;37.756;2023-03-21T07:09:57;98835.25;;;4.68;61.60
42671;BME280;28283;55.426;37.756;2023-03-21T07:14:58;98827.06;;;5.01;61.87
42671;BME280;28283;55.426;37.756;2023-03-21T07:19:59;98821.75;;;5.39;61.85
42671;BME280;28283;55.426;37.756;2023-03-21T07:24:59;98808.38;;;5.77;61.10
42671;BME280;28283;55.426;37.756;2023-03-21T07:30:00;98808.75;;;5.89;59.00
42671;BME280;28283;55.426;37.756;2023-03-21T07:35:00;98813.44;;;5.72;59.70
42671;BME280;28283;55.426;37.756;2023-03-21T07:40:01;98815.91;;;5.73;59.14
42671;BME280;28283;55.426;37.756;2023-03-21T07:45:08;98812.72;;;5.78;60.01
42671;BME280;28283;55.426;37.756;2023-03-21T07:50:09;98807.91;;;5.73;59.24
42671;BME280;28283;55.426;37.756;2023-03-21T07:55:10;98812.31;;;5.51;60.67
42671;BME280;28283;55.426;37.756;2023-03-21T08:00:11;98812.22;;;5.45;60.80
42671;BME280;28283;55.426;37.756;2023-03-21T08:05:12;98804.88;;;5.77;60.06
42671;BME280;28283;55.426;37.756;2023-03-21T08:10:13;98800.72;;;5.59;60.25
42671;BME280;28283;55.426;37.756;2023-03-21T08:15:13;98808.53;;;5.46;60.55
42671;BME280;28283;55.426;37.756;2023-03-21T08:20:15;98813.72;;;5.62;60.02
42671;BME280;28283;55.426;37.756;2023-03-21T08:25:17;98809.81;;;5.50;61.20
42671;BME280;28283;55.426;37.756;2023-03-21T08:30:19;98815.75;;;5.75;60.07
42671;BME280;28283;55.426;37.756;2023-03-21T08:35:20;98812.50;;;5.50;60.70
42671;BME280;28283;55.426;37.756;2023-03-21T08:40:21;98809.63;;;5.37;61.10
42671;BME280;28283;55.426;37.756;2023-03-21T08:45:22;98816.19;;;5.79;60.69
42671;BME280;28283;55.426;37.756;2023-03-21T08:50:23;98816.47;;;5.84;60.44
42671;BME280;28283;55.426;37.756;2023-03-21T08:55:26;98818.13;;;5.85;60.58
42671;BME280;28283;55.426;37.756;2023-03-21T09:00:29;98803.78;;;5.86;60.96
42671;BME280;28283;55.426;37.756;2023-03-21T09:05:29;98794.78;;;5.87;60.65
42671;BME280;28283;55.426;37.756;2023-03-21T09:10:30;98806.66;;;5.99;61.05
42671;BME280;28283;55.426;37.756;2023-03-21T09:15:31;98800.75;;;5.89;60.66
42671;BME280;28283;55.426;37.756;2023-03-21T09:20:32;98799.31;;;6.01;60.86
42671;BME280;28283;55.426;37.756;2023-03-21T09:25:33;98799.97;;;6.03;61.80
42671;BME280;28283;55.426;37.756;2023-03-21T09:30:34;98794.88;;;6.23;60.83
42671;BME280;28283;55.426;37.756;2023-03-21T09:35:37;98799.13;;;6.18;60.87
42671;BME280;28283;55.426;37.756;2023-03-21T09:45:54;98808.31;;;6.30;61.05
42671;BME280;28283;55.426;37.756;2023-03-21T09:50:58;98800.66;;;6.63;59.11
42671;BME280;28283;55.426;37.756;2023-03-21T09:56:00;98789.91;;;6.78;57.08
42671;BME280;28283;55.426;37.756;2023-03-21T10:06:10;98786.88;;;6.81;57.05
42671;BME280;28283;55.426;37.756;2023-03-21T10:11:16;98770.97;;;6.95;56.74
42671;BME280;28283;55.426;37.756;2023-03-21T10:16:20;98775.03;;;6.91;57.96
42671;BME280;28283;55.426;37.756;2023-03-21T10:21:23;98769.63;;;7.05;58.10
42671;BME280;28283;55.426;37.756;2023-03-21T10:26:24;98758.81;;;7.77;56.50
42671;BME280;28283;55.426;37.756;2023-03-21T10:31:27;98769.06;;;7.67;56.92
42671;BME280;28283;55.426;37.756;2023-03-21T10:36:30;98749.47;;;7.66;56.56
42671;BME280;28283;55.426;37.756;2023-03-21T10:41:32;98735.69;;;7.62;57.65
42671;BME280;28283;55.426;37.756;2023-03-21T10:46:32;98734.91;;;7.69;57.87
42671;BME280;28283;55.426;37.756;2023-03-21T10:51:34;98734.34;;;7.80;57.91
42671;BME280;28283;55.426;37.756;2023-03-21T10:56:39;98726.78;;;7.90;57.85
42671;BME280;28283;55.426;37.756;2023-03-21T11:01:42;98728.22;;;7.93;57.27
42671;BME280;28283;55.426;37.756;2023-03-21T11:06:50;98741.91;;;8.18;56.98
42671;BME280;28283;55.426;37.756;2023-03-21T11:11:52;98737.25;;;8.33;56.30
42671;BME280;28283;55.426;37.756;2023-03-21T11:16:53;98728.19;;;8.41;55.16
42671;BME280;28283;55.426;37.756;2023-03-21T11:21:55;98722.38;;;8.24;55.89
42671;BME280;28283;55.426;37.756;2023-03-21T11:26:56;98726.81;;;8.03;56.15
42671;BME280;28283;55.426;37.756;2023-03-21T11:32:01;98724.38;;;8.09;56.44
42671;BME280;28283;55.426;37.756;2023-03-21T11:42:43;98709.34;;;8.76;54.61
42671;BME280;28283;55.426;37.756;2023-03-21T11:47:47;98703.75;;;9.04;53.81
42671;BME280;28283;55.426;37.756;2023-03-21T11:53:04;98698.91;;;9.73;52.96
42671;BME280;28283;55.426;37.756;2023-03-21T11:58:14;98699.47;;;10.34;51.42
42671;BME280;28283;55.426;37.756;2023-03-21T12:44:09;98648.13;;;11.79;43.30
42671;BME280;28283;55.426;37.756;2023-03-21T12:49:17;98633.91;;;11.54;44.63
42671;BME280;28283;55.426;37.756;2023-03-21T12:54:36;98635.13;;;11.58;42.92
42671;BME280;28283;55.426;37.756;2023-03-21T12:59:40;98636.78;;;11.40;42.46
42671;BME280;28283;55.426;37.756;2023-03-21T13:04:51;98628.38;;;11.30;41.98
42671;BME280;28283;55.426;37.756;2023-03-21T13:09:55;98629.56;;;10.97;42.88
42671;BME280;28283;55.426;37.756;2023-03-21T13:15:11;98624.81;;;10.93;41.97
42671;BME280;28283;55.426;37.756;2023-03-21T13:20:18;98622.88;;;10.81;41.96
42671;BME280;28283;55.426;37.756;2023-03-21T13:25:22;98597.59;;;11.07;39.18
42671;BME280;28283;55.426;37.756;2023-03-21T13:30:24;98604.78;;;10.70;40.24
42671;BME280;28283;55.426;37.756;2023-03-21T13:40:40;98606.53;;;10.83;40.31
42671;BME280;28283;55.426;37.756;2023-03-21T13:45:44;98608.78;;;10.86;38.69
42671;BME280;28283;55.426;37.756;2023-03-21T13:50:52;98607.41;;;10.77;39.31
42671;BME280;28283;55.426;37.756;2023-03-21T13:55:57;98608.56;;;10.62;40.09
42671;BME280;28283;55.426;37.756;2023-03-21T14:06:08;98592.19;;;10.39;38.94
42671;BME280;28283;55.426;37.756;2023-03-21T14:11:11;98613.31;;;10.60;37.75
42671;BME280;28283;55.426;37.756;2023-03-21T14:16:14;98609.78;;;10.35;38.82
42671;BME280;28283;55.426;37.756;2023-03-21T14:21:19;98611.09;;;10.19;39.51
42671;BME280;28283;55.426;37.756;2023-03-21T14:26:20;98605.91;;;10.24;39.42
42671;BME280;28283;55.426;37.756;2023-03-21T14:31:20;98613.63;;;10.13;39.31
42671;BME280;28283;55.426;37.756;2023-03-21T14:36:28;98607.41;;;10.20;38.90
42671;BME280;28283;55.426;37.756;2023-03-21T14:41:29;98602.22;;;10.18;38.53
42671;BME280;28283;55.426;37.756;2023-03-21T14:46:30;98604.19;;;9.98;39.18
42671;BME280;28283;55.426;37.756;2023-03-21T14:51:30;98600.34;;;9.87;39.02
42671;BME280;28283;55.426;37.756;2023-03-21T14:56:31;98594.88;;;9.62;39.61
42671;BME280;28283;55.426;37.756;2023-03-21T15:01:34;98597.00;;;9.53;39.75
42671;BME280;28283;55.426;37.756;2023-03-21T15:06:47;98598.72;;;9.41;39.89
42671;BME280;28283;55.426;37.756;2023-03-21T15:11:49;98604.50;;;9.31;39.50
42671;BME280;28283;55.426;37.756;2023-03-21T15:16:50;98598.38;;;9.10;39.54
42671;BME280;28283;55.426;37.756;2023-03-21T15:21:52;98602.53;;;8.93;40.02
42671;BME280;28283;55.426;37.756;2023-03-21T15:26:59;98607.06;;;8.79;40.28
42671;BME280;28283;55.426;37.756;2023-03-21T15:32:02;98608.72;;;8.73;40.17
42671;BME280;28283;55.426;37.756;2023-03-21T15:37:04;98613.69;;;8.63;40.61
42671;BME280;28283;55.426;37.756;2023-03-21T15:42:05;98613.25;;;8.59;40.53
42671;BME280;28283;55.426;37.756;2023-03-21T15:47:34;98607.72;;;8.54;40.49
42671;BME280;28283;55.426;37.756;2023-03-21T15:52:35;98614.53;;;8.44;40.51
42671;BME280;28283;55.426;37.756;2023-03-21T15:57:35;98606.69;;;8.42;40.76
42671;BME280;28283;55.426;37.756;2023-03-21T16:02:37;98607.47;;;8.36;40.87
42671;BME280;28283;55.426;37.756;2023-03-21T16:07:43;98607.47;;;8.29;40.95
42671;BME280;28283;55.426;37.756;2023-03-21T16:12:44;98618.59;;;8.26;40.92
42671;BME280;28283;55.426;37.756;2023-03-21T16:17:58;98626.81;;;8.25;40.89
42671;BME280;28283;55.426;37.756;2023-03-21T16:22:59;98619.81;;;8.17;40.46
42671;BME280;28283;55.426;37.756;2023-03-21T16:28:00;98618.16;;;8.16;40.73
42671;BME280;28283;55.426;37.756;2023-03-21T16:33:00;98620.63;;;8.17;40.28
42671;BME280;28283;55.426;37.756;2023-03-21T16:38:01;98620.59;;;8.11;40.16
42671;BME280;28283;55.426;37.756;2023-03-21T16:43:04;98631.09;;;8.06;41.11
42671;BME280;28283;55.426;37.756;2023-03-21T16:48:04;98628.00;;;8.02;40.89
42671;BME280;28283;55.426;37.756;2023-03-21T16:53:07;98637.88;;;8.01;40.89
42671;BME280;28283;55.426;37.756;2023-03-21T16:58:10;98631.72;;;8.01;40.73
42671;BME280;28283;55.426;37.756;2023-03-21T17:03:14;98632.53;;;8.01;41.37
42671;BME280;28283;55.426;37.756;2023-03-21T17:08:17;98644.28;;;8.00;41.43
42671;BME280;28283;55.426;37.756;2023-03-21T17:13:18;98634.78;;;7.98;41.32
42671;BME280;28283;55.426;37.756;2023-03-21T17:18:19;98645.47;;;7.91;41.79
42671;BME280;28283;55.426;37.756;2023-03-21T17:23:19;98645.88;;;7.95;41.65
42671;BME280;28283;55.426;37.756;2023-03-21T17:28:20;98647.28;;;7.84;42.40
42671;BME280;28283;55.426;37.756;2023-03-21T17:33:20;98660.47;;;7.86;42.25
42671;BME280;28283;55.426;37.756;2023-03-21T17:38:21;98661.06;;;7.74;42.39
42671;BME280;28283;55.426;37.756;2023-03-21T17:43:21;98665.81;;;7.86;42.68
42671;BME280;28283;55.426;37.756;2023-03-21T17:48:22;98662.72;;;7.82;43.24
42671;BME280;28283;55.426;37.756;2023-03-21T17:53:23;98665.25;;;7.97;43.57
42671;BME280;28283;55.426;37.756;2023-03-21T17:58:25;98666.59;;;7.73;43.73
42671;BME280;28283;55.426;37.756;2023-03-21T18:03:26;98670.81;;;7.95;43.97
42671;BME280;28283;55.426;37.756;2023-03-21T18:08:26;98677.41;;;7.99;44.55
42671;BME280;28283;55.426;37.756;2023-03-21T18:13:27;98676.06;;;7.69;45.07
42671;BME280;28283;55.426;37.756;2023-03-21T18:18:27;98683.13;;;7.83;44.85
42671;BME280;28283;55.426;37.756;2023-03-21T18:23:28;98687.03;;;7.87;45.90
42671;BME280;28283;55.426;37.756;2023-03-21T18:28:28;98690.97;;;7.98;45.41
42671;BME280;28283;55.426;37.756;2023-03-21T18:33:29;98698.34;;;7.89;46.23
42671;BME280;28283;55.426;37.756;2023-03-21T18:38:29;98699.78;;;7.85;46.49
42671;BME280;28283;55.426;37.756;2023-03-21T18:43:30;98705.19;;;7.92;46.59
42671;BME280;28283;55.426;37.756;2023-03-21T18:48:30;98708.63;;;7.79;47.68
42671;BME280;28283;55.426;37.756;2023-03-21T18:53:31;98702.19;;;7.67;48.47
42671;BME280;28283;55.426;37.756;2023-03-21T18:58:31;98699.63;;;7.52;48.90
42671;BME280;28283;55.426;37.756;2023-03-21T19:03:32;98701.22;;;7.46;49.69
42671;BME280;28283;55.426;37.756;2023-03-21T19:08:33;98704.91;;;7.38;50.72
42671;BME280;28283;55.426;37.756;2023-03-21T19:13:40;98705.75;;;7.45;52.00
42671;BME280;28283;55.426;37.756;2023-03-21T19:18:40;98710.75;;;7.20;52.44
42671;BME280;28283;55.426;37.756;2023-03-21T19:23:41;98721.72;;;7.32;53.46
42671;BME280;28283;55.426;37.756;2023-03-21T19:28:42;98714.66;;;7.24;54.30
42671;BME280;28283;55.426;37.756;2023-03-21T19:33:42;98723.22;;;7.13;56.24
42671;BME280;28283;55.426;37.756;2023-03-21T19:38:42;98721.72;;;7.04;56.99
42671;BME280;28283;55.426;37.756;2023-03-21T19:43:43;98729.13;;;7.02;60.74
42671;BME280;28283;55.426;37.756;2023-03-21T19:48:44;98735.94;;;6.83;66.00
42671;BME280;28283;55.426;37.756;2023-03-21T19:53:46;98729.69;;;6.54;67.91
42671;BME280;28283;55.426;37.756;2023-03-21T20:03:57;98733.56;;;6.30;71.55
42671;BME280;28283;55.426;37.756;2023-03-21T20:08:57;98739.94;;;6.14;72.59
42671;BME280;28283;55.426;37.756;2023-03-21T20:13:58;98736.19;;;6.08;73.28
42671;BME280;28283;55.426;37.756;2023-03-21T20:19:01;98743.84;;;5.97;74.07
42671;BME280;28283;55.426;37.756;2023-03-21T20:24:02;98737.28;;;5.99;74.48
42671;BME280;28283;55.426;37.756;2023-03-21T20:29:04;98731.59;;;6.02;74.93
42671;BME280;28283;55.426;37.756;2023-03-21T20:34:05;98737.00;;;5.94;75.17
42671;BME280;28283;55.426;37.756;2023-03-21T20:39:05;98749.16;;;5.82;75.51
42671;BME280;28283;55.426;37.756;2023-03-21T20:44:06;98750.72;;;5.91;75.59
42671;BME280;28283;55.426;37.756;2023-03-21T20:49:06;98747.22;;;5.76;76.32
42671;BME280;28283;55.426;37.756;2023-03-21T20:54:07;98745.09;;;5.86;76.34
42671;BME280;28283;55.426;37.756;2023-03-21T20:59:09;98753.88;;;5.80;76.73
42671;BME280;28283;55.426;37.756;2023-03-21T21:04:10;98752.09;;;5.72;77.14
42671;BME280;28283;55.426;37.756;2023-03-21T21:09:10;98747.06;;;5.62;77.78
42671;BME280;28283;55.426;37.756;2023-03-21T21:14:11;98748.50;;;5.65;78.14
42671;BME280;28283;55.426;37.756;2023-03-21T21:19:11;98754.13;;;5.55;77.82
42671;BME280;28283;55.426;37.756;2023-03-21T21:24:12;98750.66;;;5.54;78.28
42671;BME280;28283;55.426;37.756;2023-03-21T21:29:13;98768.28;;;5.55;78.47
42671;BME280;28283;55.426;37.756;2023-03-21T21:34:16;98766.72;;;5.46;79.07
42671;BME280;28283;55.426;37.756;2023-03-21T21:39:20;98765.91;;;5.46;79.23
42671;BME280;28283;55.426;37.756;2023-03-21T21:44:21;98758.25;;;5.43;79.31
42671;BME280;28283;55.426;37.756;2023-03-21T21:49:22;98744.47;;;5.39;79.47
42671;BME280;28283;55.426;37.756;2023-03-21T21:54:22;98780.50;;;5.35;79.55
42671;BME280;28283;55.426;37.756;2023-03-21T21:59:22;98763.88;;;5.33;80.01
42671;BME280;28283;55.426;37.756;2023-03-21T22:04:23;98776.03;;;5.27;79.88
42671;BME280;28283;55.426;37.756;2023-03-21T22:09:26;98791.22;;;5.27;79.91
42671;BME280;28283;55.426;37.756;2023-03-21T22:14:27;98784.25;;;5.26;80.32
42671;BME280;28283;55.426;37.756;2023-03-21T22:19:27;98786.78;;;5.19;80.43
42671;BME280;28283;55.426;37.756;2023-03-21T22:24:28;98790.47;;;5.18;80.91
42671;BME280;28283;55.426;37.756;2023-03-21T22:29:28;98797.28;;;5.21;80.77
42671;BME280;28283;55.426;37.756;2023-03-21T22:34:29;98806.78;;;5.15;81.20
42671;BME280;28283;55.426;37.756;2023-03-21T22:39:30;98810.13;;;5.17;80.92
42671;BME280;28283;55.426;37.756;2023-03-21T22:44:31;98819.00;;;5.09;81.24
42671;BME280;28283;55.426;37.756;2023-03-21T22:49:35;98815.28;;;4.95;81.66
42671;BME280;28283;55.426;37.756;2023-03-21T22:54:35;98820.06;;;5.00;81.83
42671;BME280;28283;55.426;37.756;2023-03-21T22:59:36;98829.78;;;5.16;81.34
42671;BME280;28283;55.426;37.756;2023-03-21T23:04:36;98830.50;;;5.10;81.28
42671;BME280;28283;55.426;37.756;2023-03-21T23:09:37;98831.53;;;5.01;81.61
42671;BME280;28283;55.426;37.756;2023-03-21T23:14:37;98833.81;;;5.12;81.16
42671;BME280;28283;55.426;37.756;2023-03-21T23:19:38;98832.44;;;5.16;81.77
42671;BME280;28283;55.426;37.756;2023-03-21T23:24:38;98830.84;;;5.07;82.13
42671;BME280;28283;55.426;37.756;2023-03-21T23:29:39;98838.03;;;5.06;81.51
42671;BME280;28283;55.426;37.756;2023-03-21T23:34:40;98838.72;;;5.00;81.70
42671;BME280;28283;55.426;37.756;2023-03-21T23:39:40;98839.50;;;5.09;81.72
42671;BME280;28283;55.426;37.756;2023-03-21T23:44:41;98845.81;;;5.08;82.03
42671;BME280;28283;55.426;37.756;2023-03-21T23:49:42;98832.22;;;5.03;81.98
42671;BME280;28283;55.426;37.756;2023-03-21T23:54:43;98832.31;;;5.09;81.97
42671;BME280;28283;55.426;37.756;2023-03-21T23:59:44;98835.88;;;5.02;82.38
